createdAt,value
2022-10-13T00:01:42.018Z,11.63
2022-10-13T00:04:08.418Z,12.07
2022-10-13T00:06:34.928Z,11.90
2022-10-13T00:09:01.402Z,12.70
2022-10-13T00:11:29.648Z,11.38
2022-10-13T00:13:59.211Z,11.65
2022-10-13T00:16:26.939Z,10.90
2022-10-13T00:18:53.729Z,11.43
2022-10-13T00:21:23.377Z,11.27
2022-10-13T00:23:50.945Z,10.43
2022-10-13T00:26:18.207Z,11.25
2022-10-13T00:28:49.754Z,11.63
2022-10-13T00:31:26.991Z,12.55
2022-10-13T00:33:53.873Z,11.95
2022-10-13T00:36:22.352Z,10.93
2022-10-13T00:38:49.310Z,11.98
2022-10-13T00:41:16.143Z,12.03
2022-10-13T00:44:01.335Z,11.48
2022-10-13T00:46:35.725Z,12.13
2022-10-13T00:49:06.574Z,10.38
2022-10-13T00:51:38.243Z,12.05
2022-10-13T00:54:06.939Z,11.47
2022-10-13T00:56:34.835Z,12.07
2022-10-13T00:59:02.545Z,12.13
2022-10-13T01:01:29.033Z,11.98
2022-10-13T01:03:55.442Z,11.68
2022-10-13T01:06:23.877Z,12.23
2022-10-13T01:08:50.686Z,11.15
2022-10-13T01:11:43.708Z,11.65
2022-10-13T01:14:36.519Z,12.90
2022-10-13T01:17:24.575Z,11.85
2022-10-13T01:20:45.057Z,10.67
2022-10-13T01:23:14.421Z,12.20
2022-10-13T01:25:54.316Z,11.32
2022-10-13T01:28:39.516Z,11.43
2022-10-13T01:31:20.374Z,11.43
2022-10-13T01:34:04.122Z,12.03
2022-10-13T01:36:44.877Z,12.55
2022-10-13T01:39:33.822Z,11.88
2022-10-13T01:42:27.665Z,10.63
2022-10-13T01:45:00.203Z,11.32
2022-10-13T01:47:28.857Z,11.40
2022-10-13T01:49:57.197Z,11.02
2022-10-13T01:52:27.754Z,11.57
2022-10-13T01:54:54.580Z,10.63
2022-10-13T01:57:47.261Z,11.02
2022-10-13T02:00:17.820Z,11.53
2022-10-13T02:03:09.313Z,11.50
2022-10-13T02:05:38.915Z,11.55
2022-10-13T02:08:14.542Z,12.40
2022-10-13T02:10:48.759Z,11.98
2022-10-13T02:13:19.619Z,11.60
2022-10-13T02:15:49.274Z,10.93
2022-10-13T02:18:20.264Z,11.48
2022-10-13T02:20:47.766Z,11.20
2022-10-13T02:23:16.845Z,11.13
2022-10-13T02:25:44.394Z,9.83
2022-10-13T02:28:12.725Z,11.02
2022-10-13T02:30:41.226Z,11.32
2022-10-13T02:33:08.912Z,11.85
2022-10-13T02:35:35.705Z,11.27
2022-10-13T02:38:02.316Z,10.83
2022-10-13T02:40:28.781Z,11.05
2022-10-13T02:42:55.249Z,11.30
2022-10-13T02:45:21.811Z,10.90
2022-10-13T02:47:48.433Z,10.30
2022-10-13T02:50:14.949Z,11.60
2022-10-13T02:52:41.421Z,11.30
2022-10-13T02:55:07.955Z,10.40
2022-10-13T02:57:34.744Z,11.82
2022-10-13T03:00:01.212Z,11.52
2022-10-13T03:02:28.601Z,11.40
2022-10-13T03:04:55.044Z,10.65
2022-10-13T03:07:21.636Z,10.68
2022-10-13T03:09:48.342Z,12.07
2022-10-13T03:12:14.855Z,11.32
2022-10-13T03:14:41.319Z,10.30
2022-10-13T03:17:11.128Z,10.95
2022-10-13T03:19:39.981Z,12.13
2022-10-13T03:22:06.470Z,12.10
2022-10-13T03:24:32.931Z,10.77
2022-10-13T03:26:59.395Z,10.23
2022-10-13T03:29:25.928Z,11.70
2022-10-13T03:31:52.445Z,12.05
2022-10-13T03:34:20.293Z,12.35
2022-10-13T03:36:47.223Z,12.18
2022-10-13T03:39:13.821Z,12.10
2022-10-13T03:41:40.279Z,11.77
2022-10-13T03:44:07.591Z,13.00
2022-10-13T03:46:34.228Z,12.23
2022-10-13T03:49:00.848Z,12.40
2022-10-13T03:51:27.278Z,11.87
2022-10-13T03:53:54.047Z,12.43
2022-10-13T03:56:25.072Z,12.13
2022-10-13T03:58:55.319Z,13.15
2022-10-13T04:01:23.273Z,11.80
2022-10-13T04:03:51.896Z,12.03
2022-10-13T04:06:18.366Z,12.90
2022-10-13T04:08:44.922Z,11.35
2022-10-13T04:11:14.082Z,11.52
2022-10-13T04:13:41.478Z,10.65
2022-10-13T04:16:19.486Z,12.20
2022-10-13T04:18:50.678Z,11.18
2022-10-13T04:21:17.146Z,11.48
2022-10-13T04:23:43.564Z,12.02
2022-10-13T04:26:17.019Z,11.68
2022-10-13T04:28:43.885Z,11.57
2022-10-13T04:31:10.402Z,11.73
2022-10-13T04:33:36.844Z,11.88
2022-10-13T04:36:05.421Z,11.93
2022-10-13T04:38:31.894Z,12.38
2022-10-13T04:40:58.354Z,11.90
2022-10-13T04:43:24.833Z,12.10
2022-10-13T04:45:51.301Z,11.35
2022-10-13T04:48:17.697Z,12.32
2022-10-13T04:50:44.167Z,11.57
2022-10-13T04:53:13.227Z,11.83
2022-10-13T04:55:43.172Z,11.75
2022-10-13T04:58:09.577Z,12.23
2022-10-13T05:00:36.065Z,11.70
2022-10-13T05:03:02.492Z,12.25
2022-10-13T05:05:28.907Z,12.23
2022-10-13T05:07:55.350Z,11.60
2022-10-13T05:10:21.808Z,12.23
2022-10-13T05:12:48.233Z,12.13
2022-10-13T05:15:14.753Z,11.27
2022-10-13T05:17:41.208Z,11.53
2022-10-13T05:20:08.386Z,11.90
2022-10-13T05:22:34.816Z,11.90
2022-10-13T05:25:01.255Z,12.27
2022-10-13T05:27:27.776Z,12.85
2022-10-13T05:29:54.177Z,11.90
2022-10-13T05:32:20.927Z,12.38
2022-10-13T05:34:49.117Z,13.30
2022-10-13T05:37:17.084Z,12.85
2022-10-13T05:39:43.725Z,16.80
2022-10-13T05:42:10.934Z,15.37
2022-10-13T05:44:37.480Z,13.75
2022-10-13T05:47:07.525Z,11.52
2022-10-13T05:49:36.402Z,12.48
2022-10-13T05:52:08.852Z,12.13
2022-10-13T05:54:37.710Z,12.13
2022-10-13T05:57:15.020Z,12.32
2022-10-13T05:59:53.427Z,12.88
2022-10-13T06:02:23.281Z,12.77
2022-10-13T06:04:53.937Z,12.27
2022-10-13T06:07:20.513Z,13.63
2022-10-13T06:09:47.190Z,12.55
2022-10-13T06:12:13.684Z,12.50
2022-10-13T06:14:40.113Z,12.00
2022-10-13T06:17:07.703Z,12.95
2022-10-13T06:19:34.177Z,12.47
2022-10-13T06:22:03.633Z,12.75
2022-10-13T06:24:30.645Z,12.88
2022-10-13T06:26:57.370Z,13.65
2022-10-13T06:29:24.094Z,13.23
2022-10-13T06:31:50.526Z,12.87
2022-10-13T06:34:17.002Z,13.23
2022-10-13T06:36:43.436Z,13.75
2022-10-13T06:39:10.334Z,13.88
2022-10-13T06:41:36.882Z,13.77
2022-10-13T06:44:03.491Z,13.67
2022-10-13T06:46:29.983Z,14.00
2022-10-13T06:48:56.614Z,12.63
2022-10-13T06:51:23.022Z,13.57
2022-10-13T06:53:49.524Z,13.02
2022-10-13T06:56:15.934Z,13.10
2022-10-13T06:58:42.471Z,12.55
2022-10-13T07:01:12.635Z,14.48
2022-10-13T07:03:39.205Z,13.52
2022-10-13T07:06:06.417Z,12.07
2022-10-13T07:08:34.022Z,12.33
2022-10-13T07:11:11.635Z,12.45
2022-10-13T07:13:46.149Z,12.63
2022-10-13T07:16:13.386Z,12.32
2022-10-13T07:18:39.843Z,12.98
2022-10-13T07:21:06.805Z,12.87
2022-10-13T07:23:34.112Z,12.23
2022-10-13T07:26:01.741Z,12.82
2022-10-13T07:28:28.757Z,12.90
2022-10-13T07:30:55.525Z,13.75
2022-10-13T07:33:22.097Z,13.43
2022-10-13T07:35:48.617Z,14.25
2022-10-13T07:38:15.118Z,15.27
2022-10-13T07:40:41.622Z,14.38
2022-10-13T07:43:08.263Z,15.02
2022-10-13T07:45:34.820Z,16.07
2022-10-13T07:48:01.323Z,14.98
2022-10-13T07:50:27.830Z,14.80
2022-10-13T07:52:54.355Z,14.65
2022-10-13T07:55:20.791Z,15.05
2022-10-13T07:57:47.273Z,15.93
2022-10-13T08:00:13.948Z,15.55
2022-10-13T08:02:40.459Z,15.02
2022-10-13T08:05:07.170Z,15.75
2022-10-13T08:07:33.656Z,15.10
2022-10-13T08:10:00.203Z,13.50
2022-10-13T08:12:26.662Z,13.40
2022-10-13T08:14:53.137Z,14.70
2022-10-13T08:17:19.767Z,13.73
2022-10-13T08:19:46.397Z,13.98
2022-10-13T08:22:13.171Z,13.50
2022-10-13T08:24:39.602Z,14.05
2022-10-13T08:27:06.003Z,14.52
2022-10-13T08:29:32.470Z,13.82
2022-10-13T08:31:58.950Z,14.15
2022-10-13T08:34:25.748Z,14.20
2022-10-13T08:36:56.076Z,13.43
2022-10-13T08:39:23.731Z,13.70
2022-10-13T08:41:51.108Z,13.85
2022-10-13T08:45:15.799Z,13.75
2022-10-13T08:47:28.137Z,13.93
2022-10-13T08:50:02.406Z,13.65
2022-10-13T08:52:47.940Z,14.18
2022-10-13T08:55:45.245Z,12.80
2022-10-13T08:58:24.703Z,12.88
2022-10-13T09:01:23.772Z,13.03
2022-10-13T09:03:50.250Z,12.30
2022-10-13T09:06:28.769Z,12.52
2022-10-13T09:09:00.676Z,13.02
2022-10-13T09:11:33.891Z,12.95
2022-10-13T09:14:04.140Z,12.73
2022-10-13T09:16:42.306Z,11.93
2022-10-13T09:19:30.192Z,13.23
2022-10-13T09:21:58.771Z,13.93
2022-10-13T09:24:27.247Z,11.73
2022-10-13T09:27:17.764Z,11.47
2022-10-13T09:29:44.732Z,12.90
2022-10-13T09:32:17.006Z,13.75
2022-10-13T09:34:43.933Z,13.38
2022-10-13T09:37:24.929Z,13.10
2022-10-13T09:40:19.750Z,13.00
2022-10-13T09:42:53.533Z,13.15
2022-10-13T09:45:23.130Z,14.00
2022-10-13T09:47:53.185Z,13.23
2022-10-13T09:50:27.767Z,11.70
2022-10-13T09:53:12.094Z,13.77
2022-10-13T09:55:38.554Z,12.88
2022-10-13T09:58:12.322Z,13.70
2022-10-13T10:00:40.031Z,13.20
2022-10-13T10:03:15.975Z,13.48
2022-10-13T10:05:57.045Z,13.17
2022-10-13T10:09:04.553Z,13.02
2022-10-13T10:11:42.377Z,13.48
2022-10-13T10:14:26.285Z,13.43
2022-10-13T10:17:13.778Z,12.93
2022-10-13T10:20:01.350Z,12.47
2022-10-13T10:22:42.974Z,13.75
2022-10-13T10:25:29.899Z,13.55
2022-10-13T10:28:13.597Z,13.13
2022-10-13T10:31:26.789Z,12.93
2022-10-13T10:34:19.579Z,13.30
2022-10-13T10:36:56.269Z,13.00
2022-10-13T10:39:34.546Z,12.70
2022-10-13T10:42:21.242Z,13.48
2022-10-13T10:44:51.001Z,13.02
2022-10-13T10:47:51.523Z,12.83
2022-10-13T10:50:19.125Z,12.40
2022-10-13T10:52:59.406Z,12.90
2022-10-13T10:55:25.762Z,14.07
2022-10-13T10:58:24.274Z,12.77
2022-10-13T11:01:14.363Z,13.83
2022-10-13T11:04:22.032Z,14.20
2022-10-13T11:06:48.490Z,14.30
2022-10-13T11:09:15.009Z,12.23
2022-10-13T11:11:42.830Z,14.05
2022-10-13T11:14:09.209Z,15.73
2022-10-13T11:16:38.783Z,13.98
2022-10-13T11:19:08.419Z,13.93
2022-10-13T11:21:53.140Z,14.80
2022-10-13T11:24:34.940Z,12.15
2022-10-13T11:27:07.482Z,13.40
2022-10-13T11:29:49.180Z,13.20
2022-10-13T11:32:28.082Z,13.27
2022-10-13T11:35:19.692Z,12.60
2022-10-13T11:38:07.213Z,12.82
2022-10-13T11:40:45.039Z,12.43
2022-10-13T11:43:43.274Z,12.85
2022-10-13T11:46:24.757Z,13.20
2022-10-13T11:49:31.055Z,12.50
2022-10-13T11:52:42.600Z,12.07
2022-10-13T11:55:16.854Z,11.33
2022-10-13T11:57:43.394Z,12.90
2022-10-13T12:00:18.734Z,12.13
2022-10-13T12:02:50.752Z,12.02
2022-10-13T12:05:26.025Z,11.82
2022-10-13T12:07:55.624Z,12.00
2022-10-13T12:10:32.438Z,11.77
2022-10-13T12:12:59.534Z,11.07
2022-10-13T12:15:32.034Z,12.02
2022-10-13T12:17:58.694Z,11.90
2022-10-13T12:20:31.195Z,12.10
2022-10-13T12:22:57.727Z,12.82
2022-10-13T12:25:28.234Z,13.80
2022-10-13T12:27:57.790Z,12.95
2022-10-13T12:30:27.962Z,14.18
2022-10-13T12:32:57.300Z,13.80
2022-10-13T12:35:37.216Z,14.57
2022-10-13T12:38:12.256Z,13.77
2022-10-13T12:40:39.146Z,14.30
2022-10-13T12:43:06.255Z,14.07
2022-10-13T12:45:35.261Z,15.67
2022-10-13T12:48:01.773Z,14.52
2022-10-13T12:50:28.209Z,15.60
2022-10-13T12:53:08.541Z,14.65
2022-10-13T12:55:45.226Z,16.00
2022-10-13T12:58:20.537Z,14.77
2022-10-13T13:00:55.746Z,16.05
2022-10-13T13:03:27.967Z,15.80
2022-10-13T13:06:12.905Z,15.93
2022-10-13T13:08:41.834Z,15.48
2022-10-13T13:11:21.939Z,16.87
2022-10-13T13:13:48.674Z,15.70
2022-10-13T13:16:15.162Z,15.13
2022-10-13T13:18:43.662Z,16.40
2022-10-13T13:21:13.864Z,15.38
2022-10-13T13:23:40.749Z,15.43
2022-10-13T13:26:18.754Z,15.02
2022-10-13T13:28:53.896Z,14.93
2022-10-13T13:31:23.044Z,15.90
2022-10-13T13:33:50.270Z,15.27
2022-10-13T13:36:25.382Z,14.83
2022-10-13T13:38:53.136Z,15.13
2022-10-13T13:41:20.118Z,14.38
2022-10-13T13:43:46.907Z,14.32
2022-10-13T13:46:19.536Z,14.30
2022-10-13T13:48:46.077Z,14.30
2022-10-13T13:51:12.588Z,15.02
2022-10-13T13:53:39.130Z,14.43
2022-10-13T13:56:05.723Z,14.48
2022-10-13T13:58:32.195Z,14.82
2022-10-13T14:00:59.798Z,13.57
2022-10-13T14:03:26.288Z,13.40
2022-10-13T14:05:52.822Z,14.20
2022-10-13T14:08:19.565Z,12.90
2022-10-13T14:10:46.029Z,13.40
2022-10-13T14:13:12.461Z,13.80
2022-10-13T14:15:38.880Z,12.93
2022-10-13T14:18:05.377Z,12.70
2022-10-13T14:20:31.866Z,14.32
2022-10-13T14:22:58.290Z,13.88
2022-10-13T14:25:25.081Z,12.77
2022-10-13T14:27:51.613Z,12.95
2022-10-13T14:30:18.226Z,12.70
2022-10-13T14:32:44.674Z,12.90
2022-10-13T14:35:11.284Z,12.60
2022-10-13T14:37:37.976Z,13.33
2022-10-13T14:40:05.050Z,13.70
2022-10-13T14:42:31.531Z,13.40
2022-10-13T14:44:57.984Z,13.75
2022-10-13T14:47:24.679Z,13.82
2022-10-13T14:49:51.114Z,13.77
2022-10-13T14:52:17.615Z,12.95
2022-10-13T14:54:45.144Z,12.73
2022-10-13T14:57:15.693Z,14.45
2022-10-13T14:59:42.982Z,13.23
2022-10-13T15:02:11.532Z,14.50
2022-10-13T15:04:37.962Z,13.25
2022-10-13T15:07:04.859Z,13.32
2022-10-13T15:09:45.008Z,14.82
2022-10-13T15:12:18.327Z,14.95
2022-10-13T15:14:45.051Z,13.00
2022-10-13T15:17:11.491Z,13.15
2022-10-13T15:19:37.915Z,13.13
2022-10-13T15:22:04.408Z,13.75
2022-10-13T15:24:30.830Z,13.98
2022-10-13T15:26:57.261Z,13.03
2022-10-13T15:29:23.850Z,13.80
2022-10-13T15:31:50.259Z,14.02
2022-10-13T15:34:16.658Z,13.60
2022-10-13T15:36:43.101Z,14.20
2022-10-13T15:39:10.853Z,14.27
2022-10-13T15:41:37.291Z,13.40
2022-10-13T15:44:03.949Z,14.95
2022-10-13T15:46:31.542Z,14.10
2022-10-13T15:48:59.861Z,15.15
2022-10-13T15:51:27.077Z,13.73
2022-10-13T15:53:55.150Z,14.15
2022-10-13T15:56:21.979Z,14.48
2022-10-13T15:58:48.445Z,15.77
2022-10-13T16:01:15.150Z,14.38
2022-10-13T16:03:41.976Z,14.87
2022-10-13T16:06:11.266Z,15.98
2022-10-13T16:08:39.678Z,15.73
2022-10-13T16:11:14.782Z,15.10
2022-10-13T16:13:44.948Z,15.10
2022-10-13T16:16:11.610Z,15.37
2022-10-13T16:18:39.051Z,15.07
2022-10-13T16:21:18.771Z,15.23
2022-10-13T16:23:46.394Z,15.75
2022-10-13T16:26:12.931Z,15.50
2022-10-13T16:28:39.508Z,16.47
2022-10-13T16:31:10.234Z,15.32
2022-10-13T16:33:37.325Z,16.40
2022-10-13T16:36:05.691Z,16.42
2022-10-13T16:38:32.478Z,17.15
2022-10-13T16:40:58.909Z,17.47
2022-10-13T16:43:25.415Z,18.23
2022-10-13T16:46:00.101Z,18.92
2022-10-13T16:48:27.630Z,18.48
2022-10-13T16:50:54.111Z,19.00
2022-10-13T16:53:20.719Z,17.90
2022-10-13T16:55:47.235Z,19.15
2022-10-13T16:58:13.747Z,19.02
2022-10-13T17:00:40.469Z,20.95
2022-10-13T17:03:07.342Z,20.85
2022-10-13T17:05:34.242Z,20.17
2022-10-13T17:08:00.685Z,22.35
2022-10-13T17:10:27.282Z,22.25
2022-10-13T17:12:54.519Z,21.83
2022-10-13T17:15:21.064Z,21.60
2022-10-13T17:17:47.520Z,21.67
2022-10-13T17:20:14.028Z,21.48
2022-10-13T17:22:40.733Z,22.98
2022-10-13T17:25:07.809Z,23.33
2022-10-13T17:27:36.177Z,21.45
2022-10-13T17:30:04.276Z,21.13
2022-10-13T17:32:30.738Z,19.35
2022-10-13T17:34:57.217Z,22.40
2022-10-13T17:37:24.106Z,22.38
2022-10-13T17:39:50.636Z,22.13
2022-10-13T17:42:17.058Z,21.07
2022-10-13T17:44:43.521Z,22.00
2022-10-13T17:47:09.978Z,21.23
2022-10-13T17:49:37.068Z,21.63
2022-10-13T17:52:03.605Z,19.52
2022-10-13T17:54:30.114Z,19.40
2022-10-13T17:56:59.376Z,20.17
2022-10-13T17:59:25.864Z,19.67
2022-10-13T18:01:52.354Z,19.48
2022-10-13T18:04:19.491Z,17.65
2022-10-13T18:06:46.230Z,19.23
2022-10-13T18:09:18.635Z,16.65
2022-10-13T18:11:50.160Z,19.15
2022-10-13T18:14:23.383Z,19.92
2022-10-13T18:16:51.151Z,19.77
2022-10-13T18:19:18.054Z,19.13
2022-10-13T18:21:44.549Z,19.23
2022-10-13T18:24:11.728Z,19.55
2022-10-13T18:26:38.600Z,17.27
2022-10-13T18:29:07.334Z,17.70
2022-10-13T18:31:36.157Z,17.80
2022-10-13T18:34:06.421Z,17.25
2022-10-13T18:36:38.532Z,14.98
2022-10-13T18:39:26.395Z,14.60
2022-10-13T18:41:54.961Z,14.65
2022-10-13T18:44:23.164Z,13.53
2022-10-13T18:46:51.121Z,13.63
2022-10-13T18:49:19.173Z,13.48
2022-10-13T18:51:46.822Z,12.38
2022-10-13T18:54:13.551Z,13.93
2022-10-13T18:56:40.094Z,14.27
2022-10-13T18:59:08.352Z,14.75
2022-10-13T19:01:36.696Z,15.88
2022-10-13T19:04:04.465Z,16.52
2022-10-13T19:06:32.411Z,16.42
2022-10-13T19:09:04.832Z,15.70
2022-10-13T19:11:32.415Z,15.98
2022-10-13T19:14:00.603Z,16.35
2022-10-13T19:16:29.318Z,15.88
2022-10-13T19:18:56.301Z,15.10
2022-10-13T19:21:24.443Z,15.37
2022-10-13T19:23:51.607Z,14.65
2022-10-13T19:26:21.627Z,14.75
2022-10-13T19:28:48.203Z,14.93
2022-10-13T19:31:21.257Z,16.35
2022-10-13T19:33:49.852Z,14.97
2022-10-13T19:36:38.832Z,15.30
2022-10-13T19:39:11.557Z,15.60
2022-10-13T19:41:38.310Z,14.25
2022-10-13T19:44:04.972Z,13.15
2022-10-13T19:46:32.724Z,12.67
2022-10-13T19:48:59.229Z,13.80
2022-10-13T19:51:25.683Z,12.60
2022-10-13T19:53:52.127Z,12.48
2022-10-13T19:56:21.289Z,13.00
2022-10-13T19:58:47.879Z,11.27
2022-10-13T20:01:14.435Z,12.82
2022-10-13T20:03:40.896Z,12.77
2022-10-13T20:06:07.430Z,14.07
2022-10-13T20:08:33.954Z,14.38
2022-10-13T20:11:06.133Z,13.90
2022-10-13T20:13:32.552Z,13.65
2022-10-13T20:15:58.969Z,15.32
2022-10-13T20:18:25.389Z,13.57
2022-10-13T20:20:51.882Z,18.13
2022-10-13T20:23:18.290Z,14.83
2022-10-13T20:25:44.994Z,15.88
2022-10-13T20:28:11.431Z,16.77
2022-10-13T20:30:39.666Z,17.00
2022-10-13T20:33:06.189Z,17.52
2022-10-13T20:35:32.696Z,20.17
2022-10-13T20:37:59.153Z,22.02
2022-10-13T20:40:25.693Z,20.58
2022-10-13T20:42:52.754Z,21.92
2022-10-13T20:45:19.434Z,21.60
2022-10-13T20:47:46.908Z,21.00
2022-10-13T20:50:13.952Z,22.00
2022-10-13T20:52:40.361Z,21.75
2022-10-13T20:55:07.095Z,21.88
2022-10-13T20:57:33.583Z,22.55
2022-10-13T21:00:00.044Z,21.47
2022-10-13T21:02:26.514Z,20.40
2022-10-13T21:04:53.000Z,19.60
2022-10-13T21:07:19.806Z,19.55
2022-10-13T21:09:50.203Z,17.13
2022-10-13T21:12:19.289Z,18.63
2022-10-13T21:14:45.747Z,20.27
2022-10-13T21:17:12.216Z,20.77
2022-10-13T21:19:39.835Z,21.90
2022-10-13T21:22:06.264Z,20.80
2022-10-13T21:24:32.777Z,20.57
2022-10-13T21:26:59.202Z,20.38
2022-10-13T21:29:25.683Z,19.30
2022-10-13T21:31:52.557Z,21.90
2022-10-13T21:34:19.062Z,21.42
2022-10-13T21:36:45.714Z,20.77
2022-10-13T21:39:12.251Z,21.33
2022-10-13T21:41:38.939Z,20.35
2022-10-13T21:44:05.353Z,19.65
2022-10-13T21:46:34.093Z,18.70
2022-10-13T21:49:04.623Z,20.03
2022-10-13T21:51:34.399Z,18.27
2022-10-13T21:54:03.641Z,18.88
2022-10-13T21:56:30.814Z,19.33
2022-10-13T21:58:57.330Z,17.83
2022-10-13T22:01:24.469Z,18.03
2022-10-13T22:03:56.724Z,19.20
2022-10-13T22:06:24.225Z,17.67
2022-10-13T22:08:52.596Z,19.27
2022-10-13T22:11:20.193Z,18.52
2022-10-13T22:13:46.781Z,17.77
2022-10-13T22:16:16.759Z,15.63
2022-10-13T22:18:43.838Z,16.73
2022-10-13T22:21:20.207Z,16.85
2022-10-13T22:23:47.717Z,17.42
2022-10-13T22:26:15.730Z,17.83
2022-10-13T22:28:42.745Z,17.38
2022-10-13T22:31:11.652Z,18.55
2022-10-13T22:33:41.534Z,17.80
2022-10-13T22:36:16.047Z,18.40
2022-10-13T22:38:43.779Z,16.50
2022-10-13T22:41:11.010Z,15.93
2022-10-13T22:43:37.589Z,17.58
2022-10-13T22:46:04.365Z,16.60
2022-10-13T22:48:31.042Z,16.83
2022-10-13T22:50:57.692Z,15.87
2022-10-13T22:53:24.169Z,15.30
2022-10-13T22:55:50.615Z,14.32
2022-10-13T22:58:17.094Z,15.15
2022-10-13T23:00:43.508Z,15.82
2022-10-13T23:03:13.278Z,14.43
2022-10-13T23:05:45.978Z,13.55
2022-10-13T23:08:12.538Z,14.43
2022-10-13T23:10:39.026Z,15.93
2022-10-13T23:13:06.226Z,14.88
2022-10-13T23:15:32.917Z,16.10
2022-10-13T23:17:59.349Z,15.10
2022-10-13T23:20:25.819Z,15.07
2022-10-13T23:22:52.300Z,14.77
2022-10-13T23:25:18.769Z,14.98
2022-10-13T23:27:45.200Z,14.37
2022-10-13T23:30:12.378Z,13.95
2022-10-13T23:32:38.875Z,14.27
2022-10-13T23:35:05.703Z,13.70
2022-10-13T23:37:32.414Z,13.18
2022-10-13T23:39:58.899Z,13.77
2022-10-13T23:42:25.329Z,14.35
2022-10-13T23:44:51.769Z,14.48
2022-10-13T23:47:18.418Z,12.88
2022-10-13T23:49:45.540Z,14.80
2022-10-13T23:52:12.012Z,14.50
2022-10-13T23:54:38.445Z,14.20
2022-10-13T23:57:04.903Z,15.27
2022-10-13T23:59:31.354Z,14.35
